createdAt,value
2023-05-05T00:00:17.576Z,232.08
2023-05-05T00:01:17.599Z,232.15
2023-05-05T00:02:17.624Z,231.99
2023-05-05T00:03:17.675Z,231.70
2023-05-05T00:04:17.690Z,231.58
2023-05-05T00:05:17.613Z,231.56
2023-05-05T00:06:17.635Z,231.39
2023-05-05T00:07:17.627Z,231.00
2023-05-05T00:08:17.558Z,232.01
2023-05-05T00:09:17.535Z,230.95
2023-05-05T00:10:17.561Z,230.89
2023-05-05T00:11:17.646Z,231.24
2023-05-05T00:12:17.571Z,230.80
2023-05-05T00:13:17.593Z,231.45
2023-05-05T00:14:17.606Z,231.12
2023-05-05T00:15:17.590Z,231.08
2023-05-05T00:16:17.616Z,231.18
2023-05-05T00:17:17.655Z,230.60
2023-05-05T00:18:17.594Z,230.82
2023-05-05T00:19:17.543Z,231.20
2023-05-05T00:20:17.615Z,230.61
2023-05-05T00:21:17.599Z,230.69
2023-05-05T00:22:17.564Z,230.49
2023-05-05T00:23:17.551Z,230.31
2023-05-05T00:24:18.285Z,230.77
2023-05-05T00:25:17.595Z,229.98
2023-05-05T00:26:17.556Z,231.08
2023-05-05T00:27:17.556Z,231.39
2023-05-05T00:28:17.555Z,230.70
2023-05-05T00:29:17.574Z,230.53
2023-05-05T00:30:17.515Z,231.34
2023-05-05T00:31:17.613Z,230.89
2023-05-05T00:32:17.515Z,230.75
2023-05-05T00:33:17.533Z,230.65
2023-05-05T00:34:17.530Z,230.91
2023-05-05T00:35:17.550Z,231.00
2023-05-05T00:36:17.529Z,230.74
2023-05-05T00:37:17.520Z,230.60
2023-05-05T00:38:17.525Z,230.71
2023-05-05T00:39:17.564Z,230.34
2023-05-05T00:40:17.501Z,231.58
2023-05-05T00:41:17.548Z,231.17
2023-05-05T00:42:17.508Z,230.41
2023-05-05T00:43:17.484Z,231.28
2023-05-05T00:44:17.504Z,230.54
2023-05-05T00:45:17.502Z,230.42
2023-05-05T00:46:17.493Z,230.15
2023-05-05T00:47:17.486Z,229.96
2023-05-05T00:48:17.474Z,230.84
2023-05-05T00:49:17.552Z,230.56
2023-05-05T00:50:17.512Z,230.48
2023-05-05T00:51:17.516Z,231.25
2023-05-05T00:52:17.498Z,230.43
2023-05-05T00:53:17.457Z,230.49
2023-05-05T00:54:17.470Z,231.06
2023-05-05T00:55:17.449Z,230.13
2023-05-05T00:56:17.419Z,229.91
2023-05-05T00:57:17.458Z,230.95
2023-05-05T00:58:17.478Z,230.53
2023-05-05T00:59:17.393Z,230.83
2023-05-05T01:00:17.483Z,229.60
2023-05-05T01:01:17.635Z,230.60
2023-05-05T01:02:17.448Z,230.55
2023-05-05T01:03:17.481Z,229.40
2023-05-05T01:04:17.413Z,230.29
2023-05-05T01:05:17.413Z,229.78
2023-05-05T01:06:17.418Z,229.86
2023-05-05T01:07:17.405Z,229.88
2023-05-05T01:08:17.485Z,230.28
2023-05-05T01:09:17.386Z,230.18
2023-05-05T01:10:20.387Z,230.04
2023-05-05T01:11:17.373Z,230.93
2023-05-05T01:12:17.373Z,230.24
2023-05-05T01:13:17.393Z,230.66
2023-05-05T01:14:17.407Z,230.28
2023-05-05T01:15:17.377Z,230.40
2023-05-05T01:16:17.456Z,230.66
2023-05-05T01:17:17.324Z,229.58
2023-05-05T01:18:17.385Z,230.52
2023-05-05T01:19:17.359Z,230.04
2023-05-05T01:20:17.346Z,230.41
2023-05-05T01:21:17.310Z,229.99
2023-05-05T01:22:17.313Z,230.05
2023-05-05T01:23:17.345Z,230.20
2023-05-05T01:24:17.328Z,230.14
2023-05-05T01:25:17.293Z,230.21
2023-05-05T01:26:17.281Z,229.45
2023-05-05T01:27:17.275Z,230.11
2023-05-05T01:28:17.284Z,230.47
2023-05-05T01:29:17.265Z,229.82
2023-05-05T01:30:17.296Z,230.39
2023-05-05T01:31:17.282Z,229.19
2023-05-05T01:32:17.291Z,229.60
2023-05-05T01:33:17.240Z,229.31
2023-05-05T01:34:17.244Z,228.97
2023-05-05T01:35:17.266Z,229.53
2023-05-05T01:36:17.240Z,230.17
2023-05-05T01:37:17.197Z,229.01
2023-05-05T01:38:17.239Z,230.04
2023-05-05T01:39:17.230Z,229.80
2023-05-05T01:40:17.183Z,229.18
2023-05-05T01:41:17.258Z,229.63
2023-05-05T01:42:17.167Z,229.38
2023-05-05T01:43:17.191Z,228.92
2023-05-05T01:44:17.158Z,230.01
2023-05-05T01:45:17.158Z,229.35
2023-05-05T01:46:17.281Z,229.64
2023-05-05T01:47:17.186Z,229.60
2023-05-05T01:48:17.130Z,229.82
2023-05-05T01:49:17.155Z,229.41
2023-05-05T01:50:17.146Z,229.20
2023-05-05T01:51:17.124Z,230.21
2023-05-05T01:52:17.159Z,228.92
2023-05-05T01:53:17.117Z,229.35
2023-05-05T01:54:17.115Z,229.88
2023-05-05T01:55:17.076Z,228.87
2023-05-05T01:56:17.167Z,229.36
2023-05-05T01:57:17.085Z,229.05
2023-05-05T01:58:17.071Z,228.97
2023-05-05T01:59:17.102Z,229.53
2023-05-05T02:00:17.102Z,229.54
2023-05-05T02:01:17.090Z,229.19
2023-05-05T02:02:17.116Z,229.81
2023-05-05T02:03:17.191Z,229.95
2023-05-05T02:04:17.032Z,229.45
2023-05-05T02:05:17.024Z,229.45
2023-05-05T02:06:17.047Z,229.43
2023-05-05T02:07:17.040Z,228.59
2023-05-05T02:08:17.010Z,229.65
2023-05-05T02:09:16.976Z,229.72
2023-05-05T02:10:17.007Z,229.59
2023-05-05T02:11:16.983Z,229.07
2023-05-05T02:12:16.998Z,229.19
2023-05-05T02:13:17.137Z,229.21
2023-05-05T02:14:17.002Z,228.99
2023-05-05T02:15:16.939Z,229.53
2023-05-05T02:16:17.174Z,228.76
2023-05-05T02:17:16.987Z,229.70
2023-05-05T02:18:16.940Z,229.42
2023-05-05T02:19:17.002Z,229.57
2023-05-05T02:20:16.916Z,228.99
2023-05-05T02:21:16.932Z,229.46
2023-05-05T02:22:16.928Z,229.15
2023-05-05T02:23:16.913Z,229.27
2023-05-05T02:24:16.888Z,229.51
2023-05-05T02:25:16.882Z,228.87
2023-05-05T02:26:16.950Z,229.33
2023-05-05T02:27:16.899Z,229.58
2023-05-05T02:28:16.901Z,229.29
2023-05-05T02:29:16.896Z,229.48
2023-05-05T02:30:16.888Z,229.44
2023-05-05T02:31:16.877Z,229.54
2023-05-05T02:32:16.878Z,228.78
2023-05-05T02:33:16.892Z,229.28
2023-05-05T02:34:16.824Z,229.46
2023-05-05T02:35:16.831Z,229.19
2023-05-05T02:36:16.831Z,229.43
2023-05-05T02:37:16.827Z,229.60
2023-05-05T02:38:16.813Z,229.38
2023-05-05T02:39:16.842Z,228.88
2023-05-05T02:40:16.781Z,228.52
2023-05-05T02:41:16.808Z,229.00
2023-05-05T02:42:16.773Z,228.69
2023-05-05T02:43:16.902Z,228.61
2023-05-05T02:44:16.753Z,228.77
2023-05-05T02:45:16.808Z,228.53
2023-05-05T02:46:16.760Z,229.55
2023-05-05T02:47:16.900Z,229.14
2023-05-05T02:48:16.796Z,228.52
2023-05-05T02:49:16.786Z,229.37
2023-05-05T02:50:16.727Z,229.17
2023-05-05T02:51:16.721Z,228.19
2023-05-05T02:52:16.824Z,228.35
2023-05-05T02:53:16.704Z,228.21
2023-05-05T02:54:16.723Z,228.77
2023-05-05T02:55:16.737Z,229.34
2023-05-05T02:56:16.675Z,228.22
2023-05-05T02:57:16.677Z,229.23
2023-05-05T02:58:16.654Z,228.86
2023-05-05T02:59:16.698Z,227.82
2023-05-05T03:00:16.651Z,228.44
2023-05-05T03:01:16.682Z,228.75
2023-05-05T03:02:16.656Z,228.41
2023-05-05T03:03:16.768Z,229.68
2023-05-05T03:04:16.640Z,228.68
2023-05-05T03:05:16.614Z,229.07
2023-05-05T03:06:16.648Z,228.76
2023-05-05T03:07:16.611Z,228.85
2023-05-05T03:08:16.656Z,229.29
2023-05-05T03:09:16.614Z,229.80
2023-05-05T03:10:16.575Z,229.45
2023-05-05T03:11:16.568Z,229.14
2023-05-05T03:12:16.542Z,228.59
2023-05-05T03:13:16.565Z,228.92
2023-05-05T03:14:16.565Z,227.73
2023-05-05T03:15:16.547Z,228.36
2023-05-05T03:16:16.612Z,228.69
2023-05-05T03:17:16.513Z,229.23
2023-05-05T03:18:16.524Z,228.59
2023-05-05T03:19:16.536Z,228.65
2023-05-05T03:20:16.509Z,228.09
2023-05-05T03:21:16.525Z,228.92
2023-05-05T03:22:16.646Z,228.11
2023-05-05T03:23:16.552Z,228.51
2023-05-05T03:24:16.484Z,228.79
2023-05-05T03:25:16.523Z,229.15
2023-05-05T03:26:16.541Z,228.12
2023-05-05T03:27:16.616Z,228.69
2023-05-05T03:28:16.552Z,229.12
2023-05-05T03:29:16.465Z,228.72
2023-05-05T03:30:16.431Z,228.86
2023-05-05T03:31:16.515Z,228.86
2023-05-05T03:32:16.484Z,228.31
2023-05-05T03:33:16.434Z,228.90
2023-05-05T03:34:16.474Z,228.73
2023-05-05T03:35:16.399Z,228.91
2023-05-05T03:36:16.422Z,229.19
2023-05-05T03:37:16.399Z,228.49
2023-05-05T03:38:16.380Z,228.92
2023-05-05T03:39:16.419Z,228.72
2023-05-05T03:40:16.355Z,229.01
2023-05-05T03:41:16.369Z,228.43
2023-05-05T03:42:16.349Z,228.60
2023-05-05T03:43:16.366Z,229.22
2023-05-05T03:44:16.357Z,228.80
2023-05-05T03:45:16.349Z,228.82
2023-05-05T03:46:16.412Z,228.98
2023-05-05T03:47:16.310Z,229.72
2023-05-05T03:48:16.305Z,228.34
2023-05-05T03:49:16.361Z,228.12
2023-05-05T03:50:16.285Z,228.51
2023-05-05T03:51:16.321Z,228.96
2023-05-05T03:52:16.308Z,228.89
2023-05-05T03:53:16.334Z,228.41
2023-05-05T03:54:16.335Z,228.66
2023-05-05T03:55:16.352Z,228.33
2023-05-05T03:56:16.357Z,228.65
2023-05-05T03:57:16.429Z,228.15
2023-05-05T03:58:16.398Z,228.49
2023-05-05T03:59:16.390Z,228.69
2023-05-05T04:00:16.527Z,228.47
2023-05-05T04:01:16.453Z,228.06
2023-05-05T04:02:18.433Z,228.49
2023-05-05T04:03:16.639Z,228.55
2023-05-05T04:04:16.566Z,226.24
2023-05-05T04:05:16.515Z,222.94
2023-05-05T04:06:16.516Z,220.82
2023-05-05T04:07:16.594Z,220.41
2023-05-05T04:08:16.552Z,217.89
2023-05-05T04:09:16.569Z,216.31
2023-05-05T04:10:16.602Z,215.03
2023-05-05T04:11:16.616Z,213.25
2023-05-05T04:12:16.645Z,212.55
2023-05-05T04:13:16.709Z,211.20
2023-05-05T04:14:16.636Z,210.83
2023-05-05T04:15:16.655Z,209.74
2023-05-05T04:16:16.706Z,207.92
2023-05-05T04:17:16.694Z,207.59
2023-05-05T04:18:16.708Z,207.80
2023-05-05T04:19:16.802Z,206.79
2023-05-05T04:20:16.691Z,206.53
2023-05-05T04:21:16.722Z,205.47
2023-05-05T04:22:16.721Z,205.41
2023-05-05T04:23:16.748Z,204.83
2023-05-05T04:24:16.743Z,203.74
2023-05-05T04:25:16.771Z,203.89
2023-05-05T04:26:16.780Z,203.59
2023-05-05T04:27:16.873Z,202.59
2023-05-05T04:28:16.801Z,201.48
2023-05-05T04:29:16.839Z,201.61
2023-05-05T04:30:16.846Z,202.03
2023-05-05T04:31:16.944Z,202.57
2023-05-05T04:32:16.895Z,205.57
2023-05-05T04:33:16.905Z,208.24
2023-05-05T04:34:16.929Z,208.67
2023-05-05T04:35:16.985Z,209.08
2023-05-05T04:36:16.984Z,210.29
2023-05-05T04:37:17.004Z,210.86
2023-05-05T04:38:17.203Z,211.02
2023-05-05T04:39:17.070Z,211.72
2023-05-05T04:40:17.058Z,211.95
2023-05-05T04:41:17.083Z,211.28
2023-05-05T04:42:17.130Z,211.53
2023-05-05T04:43:17.200Z,211.93
2023-05-05T04:44:17.163Z,212.47
2023-05-05T04:45:17.200Z,212.28
2023-05-05T04:46:17.227Z,212.77
2023-05-05T04:47:17.201Z,213.14
2023-05-05T04:48:17.236Z,213.93
2023-05-05T04:49:17.284Z,213.66
2023-05-05T04:50:17.273Z,214.95
2023-05-05T04:51:17.345Z,213.81
2023-05-05T04:52:17.340Z,214.55
2023-05-05T04:53:17.349Z,214.76
2023-05-05T04:54:17.391Z,215.43
2023-05-05T04:55:17.349Z,215.47
2023-05-05T04:56:17.441Z,215.62
2023-05-05T04:57:17.468Z,216.17
2023-05-05T04:58:17.444Z,216.63
2023-05-05T04:59:17.415Z,217.02
2023-05-05T05:00:17.477Z,216.90
2023-05-05T05:01:17.490Z,216.93
2023-05-05T05:02:17.572Z,216.41
2023-05-05T05:03:17.624Z,216.49
2023-05-05T05:04:17.651Z,215.60
2023-05-05T05:05:17.561Z,214.76
2023-05-05T05:06:17.619Z,216.50
2023-05-05T05:07:17.601Z,215.41
2023-05-05T05:08:17.649Z,215.59
2023-05-05T05:09:17.688Z,214.90
2023-05-05T05:10:17.694Z,214.66
2023-05-05T05:11:17.786Z,214.55
2023-05-05T05:12:17.771Z,213.14
2023-05-05T05:13:18.128Z,212.40
2023-05-05T05:14:17.865Z,212.38
2023-05-05T05:15:17.858Z,211.41
2023-05-05T05:16:17.929Z,211.74
2023-05-05T05:17:18.019Z,211.71
2023-05-05T05:18:17.983Z,211.92
2023-05-05T05:19:18.073Z,211.05
2023-05-05T05:20:18.038Z,210.80
2023-05-05T05:21:18.098Z,209.90
2023-05-05T05:22:18.127Z,211.07
2023-05-05T05:23:18.152Z,210.69
2023-05-05T05:24:18.169Z,209.78
2023-05-05T05:25:18.203Z,210.04
2023-05-05T05:26:18.292Z,210.50
2023-05-05T05:27:18.289Z,210.34
2023-05-05T05:28:18.494Z,211.57
2023-05-05T05:29:18.406Z,210.97
2023-05-05T05:30:18.425Z,210.99
2023-05-05T05:31:18.527Z,211.05
2023-05-05T05:32:18.532Z,211.12
2023-05-05T05:33:18.630Z,211.78
2023-05-05T05:34:18.607Z,214.76
2023-05-05T05:35:18.672Z,213.41
2023-05-05T05:36:18.797Z,213.70
2023-05-05T05:37:18.900Z,214.44
2023-05-05T05:38:18.983Z,215.60
2023-05-05T05:39:19.029Z,216.04
2023-05-05T05:40:19.006Z,216.19
2023-05-05T05:41:19.032Z,216.73
2023-05-05T05:42:19.095Z,217.64
2023-05-05T05:43:19.106Z,217.65
2023-05-05T05:44:19.139Z,216.58
2023-05-05T05:45:19.217Z,217.04
2023-05-05T05:46:19.210Z,217.30
2023-05-05T05:47:19.235Z,217.82
2023-05-05T05:48:19.366Z,216.62
2023-05-05T05:49:19.257Z,217.22
2023-05-05T05:50:19.297Z,218.19
2023-05-05T05:51:19.290Z,217.46
2023-05-05T05:52:19.419Z,214.96
2023-05-05T05:53:19.360Z,215.14
2023-05-05T05:54:19.481Z,217.23
2023-05-05T05:55:19.498Z,214.62
2023-05-05T05:56:19.405Z,213.65
2023-05-05T05:57:19.409Z,214.12
2023-05-05T05:58:19.362Z,215.38
2023-05-05T05:59:19.395Z,214.46
2023-05-05T06:00:19.412Z,213.61
2023-05-05T06:01:19.361Z,213.43
2023-05-05T06:02:19.515Z,214.30
2023-05-05T06:03:19.536Z,213.67
2023-05-05T06:04:19.468Z,213.35
2023-05-05T06:05:19.398Z,213.62
2023-05-05T06:06:19.563Z,213.49
2023-05-05T06:07:19.396Z,213.57
2023-05-05T06:08:19.393Z,214.39
2023-05-05T06:09:19.455Z,214.08
2023-05-05T06:10:28.009Z,214.63
2023-05-05T06:11:20.363Z,214.66
2023-05-05T06:12:19.427Z,214.67
2023-05-05T06:13:19.418Z,214.98
2023-05-05T06:14:20.241Z,214.73
2023-05-05T06:15:19.351Z,213.98
2023-05-05T06:16:19.373Z,214.37
2023-05-05T06:17:19.432Z,211.38
2023-05-05T06:18:19.356Z,210.48
2023-05-05T06:19:19.321Z,209.31
2023-05-05T06:20:19.383Z,209.63
2023-05-05T06:21:19.981Z,207.68
2023-05-05T06:22:19.296Z,213.42
2023-05-05T06:23:19.359Z,213.60
2023-05-05T06:24:19.312Z,208.36
2023-05-05T06:25:19.268Z,203.54
2023-05-05T06:26:19.264Z,210.50
2023-05-05T06:27:19.280Z,215.66
2023-05-05T06:28:19.590Z,217.96
2023-05-05T06:29:19.356Z,214.59
2023-05-05T06:30:19.293Z,215.95
2023-05-05T06:31:19.275Z,212.18
2023-05-05T06:32:19.272Z,206.91
2023-05-05T06:33:19.232Z,207.25
2023-05-05T06:34:19.219Z,210.47
2023-05-05T06:35:19.270Z,211.97
2023-05-05T06:36:19.338Z,211.36
2023-05-05T06:37:19.385Z,213.66
2023-05-05T06:38:19.348Z,212.86
2023-05-05T06:39:19.427Z,214.87
2023-05-05T06:40:19.978Z,215.40
2023-05-05T06:41:19.538Z,215.19
2023-05-05T06:42:19.629Z,217.36
2023-05-05T06:43:19.544Z,215.00
2023-05-05T06:44:19.540Z,214.78
2023-05-05T06:45:20.554Z,210.06
2023-05-05T06:46:19.797Z,208.97
2023-05-05T06:47:20.652Z,210.93
2023-05-05T06:48:19.559Z,211.94
2023-05-05T06:49:19.599Z,211.26
2023-05-05T06:50:19.681Z,212.19
2023-05-05T06:51:19.696Z,211.99
2023-05-05T06:52:20.035Z,209.58
2023-05-05T06:53:19.964Z,208.04
2023-05-05T06:54:19.874Z,206.91
2023-05-05T06:55:19.914Z,208.44
2023-05-05T06:56:20.445Z,205.36
2023-05-05T06:57:20.221Z,203.15
2023-05-05T06:58:20.098Z,204.96
2023-05-05T06:59:20.148Z,199.20
2023-05-05T07:00:20.190Z,198.36
2023-05-05T07:01:20.341Z,199.88
2023-05-05T07:02:20.328Z,201.26
2023-05-05T07:03:20.603Z,200.70
2023-05-05T07:04:20.976Z,201.92
2023-05-05T07:05:20.518Z,203.89
2023-05-05T07:06:20.526Z,203.63
2023-05-05T07:07:20.619Z,200.73
2023-05-05T07:08:20.756Z,201.42
2023-05-05T07:09:20.747Z,203.29
2023-05-05T07:10:20.738Z,204.53
2023-05-05T07:11:20.873Z,207.44
2023-05-05T07:12:20.841Z,206.10
2023-05-05T07:13:21.028Z,202.75
2023-05-05T07:14:22.707Z,199.97
2023-05-05T07:15:28.894Z,199.05
2023-05-05T07:16:21.997Z,194.53
2023-05-05T07:17:20.935Z,193.64
2023-05-05T07:18:21.012Z,193.14
2023-05-05T07:19:20.928Z,196.27
2023-05-05T07:20:20.925Z,195.96
2023-05-05T07:21:20.909Z,195.47
2023-05-05T07:22:20.889Z,195.96
2023-05-05T07:23:20.912Z,189.65
2023-05-05T07:24:20.949Z,183.94
2023-05-05T07:25:20.955Z,184.95
2023-05-05T07:26:20.923Z,182.06
2023-05-05T07:27:20.913Z,177.90
2023-05-05T07:28:20.983Z,177.38
2023-05-05T07:29:21.059Z,176.16
2023-05-05T07:30:21.335Z,170.99
2023-05-05T07:31:21.054Z,164.93
2023-05-05T07:32:21.071Z,157.54
2023-05-05T07:33:20.934Z,151.11
2023-05-05T07:34:20.972Z,150.39
2023-05-05T07:35:21.493Z,157.16
2023-05-05T07:36:20.986Z,161.27
2023-05-05T07:37:21.087Z,164.52
2023-05-05T07:38:21.034Z,169.70
2023-05-05T07:39:22.488Z,175.48
2023-05-05T07:40:21.471Z,176.25
2023-05-05T07:41:21.019Z,173.19
2023-05-05T07:42:21.070Z,175.56
2023-05-05T07:43:21.489Z,175.86
2023-05-05T07:44:21.489Z,177.15
2023-05-05T07:45:21.183Z,181.40
2023-05-05T07:46:21.212Z,180.64
2023-05-05T07:47:22.084Z,182.39
2023-05-05T07:48:21.308Z,182.72
2023-05-05T07:49:21.368Z,183.57
2023-05-05T07:50:21.421Z,183.08
2023-05-05T07:51:21.595Z,182.97
2023-05-05T07:52:30.093Z,183.29
2023-05-05T07:53:22.581Z,183.36
2023-05-05T07:54:21.757Z,183.44
2023-05-05T07:55:21.558Z,181.30
2023-05-05T07:56:21.926Z,176.53
2023-05-05T07:57:21.527Z,175.12
2023-05-05T07:58:21.588Z,173.60
2023-05-05T07:59:21.626Z,173.13
2023-05-05T08:00:21.603Z,173.29
2023-05-05T08:01:21.698Z,171.88
2023-05-05T08:02:21.734Z,172.11
2023-05-05T08:03:21.945Z,170.74
2023-05-05T08:04:21.852Z,168.03
2023-05-05T08:05:21.907Z,167.97
2023-05-05T08:06:22.025Z,166.81
2023-05-05T08:07:22.478Z,169.36
2023-05-05T08:08:22.125Z,169.51
2023-05-05T08:09:22.086Z,166.48
2023-05-05T08:10:22.193Z,159.52
2023-05-05T08:11:22.237Z,159.67
2023-05-05T08:12:22.252Z,158.28
2023-05-05T08:13:22.332Z,157.50
2023-05-05T08:14:22.394Z,157.10
2023-05-05T08:15:22.690Z,155.82
2023-05-05T08:16:22.593Z,158.66
2023-05-05T08:17:22.869Z,159.27
2023-05-05T08:18:22.627Z,159.63
2023-05-05T08:19:28.615Z,157.91
2023-05-05T08:20:24.524Z,157.36
2023-05-05T08:21:22.683Z,155.29
2023-05-05T08:22:22.650Z,155.32
2023-05-05T08:23:22.655Z,156.72
2023-05-05T08:24:22.686Z,157.69
2023-05-05T08:25:22.602Z,156.47
2023-05-05T08:26:22.595Z,152.57
2023-05-05T08:27:22.621Z,154.23
2023-05-05T08:28:22.671Z,153.55
2023-05-05T08:29:23.026Z,155.02
2023-05-05T08:30:22.753Z,150.45
2023-05-05T08:31:22.874Z,150.67
2023-05-05T08:32:22.910Z,139.15
2023-05-05T08:33:22.968Z,136.12
2023-05-05T08:34:22.976Z,131.48
2023-05-05T08:35:23.018Z,129.31
2023-05-05T08:36:23.080Z,125.63
2023-05-05T08:37:24.003Z,121.71
2023-05-05T08:38:23.191Z,122.08
2023-05-05T08:39:23.209Z,119.58
2023-05-05T08:40:23.286Z,123.01
2023-05-05T08:41:23.318Z,129.24
2023-05-05T08:42:36.107Z,129.54
2023-05-05T08:43:24.302Z,122.60
2023-05-05T08:44:23.324Z,118.46
2023-05-05T08:45:23.295Z,118.56
2023-05-05T08:46:23.532Z,120.80
2023-05-05T08:47:23.328Z,127.70
2023-05-05T08:48:23.319Z,136.57
2023-05-05T08:49:23.379Z,134.75
2023-05-05T08:50:23.368Z,137.20
2023-05-05T08:51:23.499Z,131.14
2023-05-05T08:52:23.513Z,131.91
2023-05-05T08:53:23.558Z,137.41
2023-05-05T08:54:24.018Z,135.40
2023-05-05T08:55:23.521Z,144.64
2023-05-05T08:56:23.565Z,129.44
2023-05-05T08:57:23.633Z,130.11
2023-05-05T08:58:23.659Z,138.98
2023-05-05T08:59:23.696Z,143.01
2023-05-05T09:00:23.797Z,147.63
2023-05-05T09:01:23.987Z,144.79
2023-05-05T09:02:23.912Z,137.75
2023-05-05T09:03:23.833Z,140.16
2023-05-05T09:04:24.035Z,141.82
2023-05-05T09:05:24.066Z,143.54
2023-05-05T09:06:23.946Z,142.67
2023-05-05T09:07:23.947Z,135.56
2023-05-05T09:08:24.083Z,133.76
2023-05-05T09:09:24.012Z,132.72
2023-05-05T09:10:24.594Z,127.45
2023-05-05T09:11:24.077Z,130.21
2023-05-05T09:12:24.544Z,129.07
2023-05-05T09:13:24.135Z,124.98
2023-05-05T09:14:24.213Z,126.21
2023-05-05T09:15:24.228Z,129.49
2023-05-05T09:16:24.284Z,131.30
2023-05-05T09:17:24.274Z,124.73
2023-05-05T09:18:24.979Z,124.30
2023-05-05T09:19:24.493Z,126.94
2023-05-05T09:20:24.418Z,117.27
2023-05-05T09:21:24.460Z,112.02
2023-05-05T09:22:24.507Z,107.17
2023-05-05T09:23:24.578Z,118.99
2023-05-05T09:24:24.518Z,107.88
2023-05-05T09:25:24.609Z,103.86
2023-05-05T09:26:24.594Z,108.19
2023-05-05T09:27:25.018Z,112.24
2023-05-05T09:28:24.671Z,113.73
2023-05-05T09:29:24.661Z,112.56
2023-05-05T09:30:24.740Z,117.67
2023-05-05T09:31:24.804Z,117.42
2023-05-05T09:32:24.827Z,130.71
2023-05-05T09:33:24.859Z,138.40
2023-05-05T09:34:24.896Z,146.50
2023-05-05T09:35:24.964Z,139.31
2023-05-05T09:36:25.118Z,134.39
2023-05-05T09:37:25.024Z,124.80
2023-05-05T09:38:25.500Z,110.58
2023-05-05T09:39:25.116Z,112.03
2023-05-05T09:40:25.143Z,101.26
2023-05-05T09:41:25.151Z,94.17
2023-05-05T09:42:25.149Z,104.18
2023-05-05T09:43:25.226Z,104.82
2023-05-05T09:44:25.326Z,90.82
2023-05-05T09:45:25.285Z,92.37
2023-05-05T09:46:25.449Z,86.39
2023-05-05T09:47:29.922Z,79.05
2023-05-05T09:48:25.356Z,79.55
2023-05-05T09:49:25.387Z,81.43
2023-05-05T09:50:25.333Z,80.86
2023-05-05T09:51:25.318Z,88.54
2023-05-05T09:52:25.322Z,104.27
2023-05-05T09:53:25.614Z,112.05
2023-05-05T09:54:25.323Z,123.70
2023-05-05T09:55:25.291Z,126.86
2023-05-05T09:56:25.309Z,126.70
2023-05-05T09:57:25.260Z,130.80
2023-05-05T09:58:25.353Z,128.48
2023-05-05T09:59:25.289Z,117.74
2023-05-05T10:00:25.277Z,104.77
2023-05-05T10:01:25.310Z,104.86
2023-05-05T10:02:25.249Z,108.64
2023-05-05T10:03:25.257Z,109.81
2023-05-05T10:04:25.310Z,107.99
2023-05-05T10:05:25.280Z,121.41
2023-05-05T10:06:25.224Z,137.07
2023-05-05T10:07:25.230Z,115.51
2023-05-05T10:08:25.245Z,108.80
2023-05-05T10:09:25.210Z,112.82
2023-05-05T10:10:26.938Z,121.58
2023-05-05T10:11:25.269Z,117.71
2023-05-05T10:12:25.233Z,115.86
2023-05-05T10:13:25.218Z,139.61
2023-05-05T10:14:25.250Z,137.27
2023-05-05T10:15:25.230Z,140.74
2023-05-05T10:16:27.346Z,143.42
2023-05-05T10:17:25.251Z,143.66
2023-05-05T10:18:25.213Z,144.57
2023-05-05T10:19:25.164Z,142.67
2023-05-05T10:20:25.269Z,140.31
2023-05-05T10:21:25.236Z,138.81
2023-05-05T10:22:25.251Z,133.47
2023-05-05T10:23:25.236Z,143.00
2023-05-05T10:24:25.236Z,143.54
2023-05-05T10:25:25.246Z,148.58
2023-05-05T10:26:25.256Z,147.08
2023-05-05T10:27:25.646Z,142.36
2023-05-05T10:28:25.228Z,140.45
2023-05-05T10:29:25.284Z,133.94
2023-05-05T10:30:25.350Z,124.68
2023-05-05T10:31:26.730Z,111.98
2023-05-05T10:32:50.155Z,119.40
2023-05-05T10:33:31.031Z,119.62
2023-05-05T10:34:26.492Z,119.72
2023-05-05T10:35:25.421Z,121.39
2023-05-05T10:36:25.394Z,121.67
2023-05-05T10:37:25.531Z,120.53
2023-05-05T10:38:26.750Z,129.75
2023-05-05T10:39:25.457Z,124.47
2023-05-05T10:40:25.422Z,129.30
2023-05-05T10:41:25.472Z,127.37
2023-05-05T10:42:25.363Z,129.00
2023-05-05T10:43:25.391Z,123.91
2023-05-05T10:44:25.394Z,125.70
2023-05-05T10:45:25.483Z,143.43
2023-05-05T10:46:25.483Z,144.41
2023-05-05T10:47:25.350Z,146.27
2023-05-05T10:48:25.428Z,150.03
2023-05-05T10:49:25.420Z,143.71
2023-05-05T10:50:26.041Z,142.62
2023-05-05T10:51:38.788Z,140.08
2023-05-05T10:52:26.358Z,140.25
2023-05-05T10:53:25.328Z,141.71
2023-05-05T10:54:25.407Z,144.24
2023-05-05T10:55:25.551Z,152.48
2023-05-05T10:56:25.325Z,161.23
2023-05-05T10:57:25.357Z,156.40
2023-05-05T10:58:25.387Z,152.98
2023-05-05T10:59:25.358Z,161.63
2023-05-05T11:00:25.346Z,164.97
2023-05-05T11:01:25.369Z,168.95
2023-05-05T11:02:25.673Z,164.01
2023-05-05T11:03:25.555Z,155.03
2023-05-05T11:04:26.453Z,158.30
2023-05-05T11:05:25.513Z,154.22
2023-05-05T11:06:25.658Z,163.16
2023-05-05T11:07:25.761Z,159.83
2023-05-05T11:08:25.721Z,148.37
2023-05-05T11:09:25.695Z,148.09
2023-05-05T11:10:25.767Z,145.17
2023-05-05T11:11:25.810Z,148.36
2023-05-05T11:12:25.995Z,139.26
2023-05-05T11:13:26.090Z,138.93
2023-05-05T11:14:26.058Z,138.10
2023-05-05T11:15:26.003Z,126.87
2023-05-05T11:16:26.097Z,141.15
2023-05-05T11:17:26.235Z,126.38
2023-05-05T11:18:26.228Z,128.84
2023-05-05T11:19:26.541Z,125.80
2023-05-05T11:20:26.291Z,130.93
2023-05-05T11:21:26.553Z,130.42
2023-05-05T11:22:26.429Z,132.79
2023-05-05T11:23:26.541Z,128.32
2023-05-05T11:24:26.538Z,124.31
2023-05-05T11:25:26.643Z,129.54
2023-05-05T11:26:26.631Z,122.18
2023-05-05T11:27:26.631Z,107.84
2023-05-05T11:28:26.699Z,89.06
2023-05-05T11:29:26.838Z,77.51
2023-05-05T11:30:26.838Z,79.83
2023-05-05T11:31:26.843Z,71.56
2023-05-05T11:32:26.912Z,73.80
2023-05-05T11:33:26.977Z,78.81
2023-05-05T11:34:27.024Z,93.14
2023-05-05T11:35:27.055Z,94.95
2023-05-05T11:36:27.104Z,106.55
2023-05-05T11:37:27.178Z,113.89
2023-05-05T11:38:27.245Z,125.01
2023-05-05T11:39:27.291Z,131.73
2023-05-05T11:40:27.329Z,134.46
2023-05-05T11:41:27.405Z,128.43
2023-05-05T11:42:27.474Z,144.49
2023-05-05T11:43:27.520Z,157.35
2023-05-05T11:44:27.594Z,166.56
2023-05-05T11:45:27.639Z,163.29
2023-05-05T11:46:27.716Z,142.75
2023-05-05T11:47:27.789Z,122.34
2023-05-05T11:48:27.875Z,116.93
2023-05-05T11:49:27.897Z,115.21
2023-05-05T11:50:28.008Z,129.22
2023-05-05T11:51:28.007Z,137.94
2023-05-05T11:52:28.093Z,141.69
2023-05-05T11:53:28.090Z,141.78
2023-05-05T11:54:28.143Z,149.89
2023-05-05T11:55:28.187Z,157.47
2023-05-05T11:56:28.195Z,160.99
2023-05-05T11:57:28.236Z,162.66
2023-05-05T11:58:28.235Z,164.92
2023-05-05T11:59:28.350Z,166.22
2023-05-05T12:00:28.293Z,166.41
2023-05-05T12:01:28.324Z,167.91
2023-05-05T12:02:28.471Z,166.23
2023-05-05T12:03:28.411Z,155.58
2023-05-05T12:04:28.383Z,148.98
2023-05-05T12:05:28.395Z,162.58
2023-05-05T12:06:28.390Z,175.16
2023-05-05T12:07:28.426Z,173.42
2023-05-05T12:08:28.460Z,154.47
2023-05-05T12:09:28.488Z,121.14
2023-05-05T12:10:28.536Z,123.86
2023-05-05T12:11:28.585Z,117.33
2023-05-05T12:12:28.656Z,119.55
2023-05-05T12:13:28.731Z,116.47
2023-05-05T12:14:28.746Z,124.33
2023-05-05T12:15:28.834Z,136.37
2023-05-05T12:16:28.940Z,130.91
2023-05-05T12:17:29.027Z,131.88
2023-05-05T12:18:29.008Z,150.62
2023-05-05T12:19:29.052Z,159.83
2023-05-05T12:20:29.104Z,165.70
2023-05-05T12:21:29.129Z,168.29
2023-05-05T12:22:29.151Z,171.20
2023-05-05T12:23:29.224Z,173.78
2023-05-05T12:24:29.170Z,177.55
2023-05-05T12:25:29.204Z,180.57
2023-05-05T12:26:29.267Z,181.94
2023-05-05T12:27:29.173Z,183.35
2023-05-05T12:28:29.203Z,184.91
2023-05-05T12:29:29.155Z,187.52